AirNav   Air Wisconsin Up To $57,000 Bonus
 
 1206 users online  

NY38 Johanson Estate Heliport
Oyster Bay, New York, USA


FAA INFORMATION EFFECTIVE 05 DECEMBER 2019

Location

FAA Identifier: NY38
Lat/Long: 40-54-24.8100N 073-30-57.9200W
40-54.413500N 073-30.965333W
40.9068917,-73.5160889
(estimated)
Elevation: 2 ft. / 1 m (estimated)
From city: 3 miles NE of OYSTER BAY, NY
Time zone: UTC -5 (UTC -4 during Daylight Saving Time)
Zip code: 11709

Heliport Operations

Heliport use: Private use. Permission required prior to landing
Activation date: 01/2019
Control tower: no
ARTCC: BOSTON CENTER
FSS: NEW YORK FLIGHT SERVICE STATION
Attendance: 
Segmented circle: no
Lights: SS-SR

Heliport Communications

WX ASOS at FRG (12 nm SE): PHONE 631-752-8129
WX ASOS at HPN (13 nm NW): PHONE 914-288-0216
WX ASOS at LGA (18 nm SW): PHONE 718-672-6317
WX ASOS at JFK (20 nm SW): 128.725 (718-656-0956)
WX ASOS at ISP (20 nm E): 128.45 (631-471-0131)

Nearby radio navigation aids

VOR radial/distance  VOR name  Freq  Var
DPKr318/11.9DEER PARK VOR/DME117.7012W
LGAr077/17.6LA GUARDIA VOR/DME113.1012W
JFKr047/20.1KENNEDY VOR/DME115.9012W
CMKr184/22.6CARMEL VOR/DME116.6012W
BDRr241/23.4BRIDGEPORT VOR/DME108.8012W
CRIr055/24.7CANARSIE VOR/DME112.3011W
TEBr093/25.0TETERBORO VOR/DME108.4011W
CCCr281/32.5CALVERTON VOR/DME117.2013W

 
NDB name  Hdg/Dist  Freq  Var  ID
FRIKK003/8.040714WFR ..-. .-.
BABYLON351/15.327514WBBN -... -... -.

Heliport Services

Runway Information

Helipad H1

Dimensions: 46 x 46 ft. / 14 x 14 m
Surface: turf
Runway edge lights: PERI
Latitude: 40-54.413500N
Longitude: 073-30.965333W
Elevation: 2.0 ft.
Traffic pattern: leftleft

Heliport Ownership and Management from official FAA records

Ownership: Privately-owned
Owner: KARL-ERIC JOHANSON
2358 SOUTH OCEAN BLVD.
HIGHLAND BEACH, FL 33487
Phone 561-563-4958
Manager: THOMAS STEVENS
205 CENTRE ISLAND ROAD
CENTRE ISLAND, NY 11771
Phone 561-563-4958

Heliport Operational Statistics

Aircraft based on the field: 1
Helicopters: 1
    

Additional Remarks

FOR CD CTC NEW YORK APCH AT 516-683-2962.

Instrument Procedures

There are no published instrument procedures at NY38.

Some nearby airports with instrument procedures:

KFRG - Republic Airport (12 nm SE)
KHPN - Westchester County Airport (13 nm NW)
KLGA - LaGuardia Airport (18 nm SW)
KJFK - John F Kennedy International Airport (20 nm SW)
KISP - Long Island Mac Arthur Airport (20 nm E)
 
Loc | Ops | Rwys | IFR | FBO | Links
Com | Nav | Svcs | Stats | Notes
Aerial photo
No photo
 
Airport distance calculator
Flying to Johanson Estate Heliport? Find the distance to fly.

From to NY38

Sunrise and sunset
Times for 05-Dec-2019
 Local
(UTC-5)
 Zulu
(UTC)
Morning civil twilight06:3411:34
Sunrise07:0412:04
Sunset16:2521:25
Evening civil twilight16:5621:56

Current date and time
Zulu (UTC)  05-Dec-2019 23:48:47
Local (UTC-5)  05-Dec-2019 18:48:47
 
METAR
KFRG 
11nm SE 
052253Z 31012G23KT 10SM OVC075 04/M07 A2994 RMK AO2 PK WND 28028/2234 SLP138 T00391067
KHPN 
13nm NW 
052256Z 30015G25KT 10SM SCT050 OVC070 02/M06 A2990 RMK AO2 PK WND 28026/2230 SLP133 T00221061
KLGA 
18nm SW 
052251Z 29010G18KT 10SM BKN050 OVC075 04/M05 A2994 RMK AO2 PK WND 27027/2154 SLP139 T00441050
KISP 
20nm E 
052256Z 29011KT 10SM SCT042 BKN080 03/M04 A2992 RMK AO2 SNE27 SLP132 P0000 T00331044
KJFK 
20nm SW 
052251Z 29015KT 10SM FEW050 BKN075 04/M05 A2996 RMK AO2 PK WND 30033/2155 SLP144 T00441050
KNYC 
22nm W 
052251Z AUTO 29007G14KT 10SM SCT050 OVC075 04/M06 A2996 RMK AO2 SLP137 T00391056
TAF
KHPN 
13nm NW 
052040Z 0521/0618 30013G23KT P6SM BKN050 FM052300 30012G20KT P6SM SCT050 FM060300 29009KT P6SM FEW060 FM060600 28005KT P6SM SCT250 FM061400 24006KT P6SM SCT080 BKN100 FM061700 22010KT P6SM BKN060 OVC080 AMD NOT SKED
KLGA 
18nm SW 
052040Z 0521/0624 29014G24KT P6SM SCT050 FM060000 29014G22KT P6SM FEW050 FM060600 30011KT P6SM FEW250 FM061100 24008KT P6SM BKN100 FM061600 22011G18KT P6SM OVC100 FM061900 20013G20KT P6SM BKN060 OVC080 FM062200 25012G19KT P6SM BKN050 BKN100
KISP 
20nm E 
052040Z 0521/0618 30015G25KT P6SM SCT050 FM052300 30013G21KT P6SM FEW050 FM060300 29009KT P6SM SCT030 FM060800 28005KT P6SM SCT250 FM061300 23007KT P6SM BKN100 FM061600 22011G18KT P6SM BKN060 OVC100
KJFK 
20nm SW 
052040Z 0521/0624 29015G25KT P6SM SCT050 FM060200 29015G23KT P6SM FEW050 FM060600 29011KT P6SM FEW250 FM061100 24008KT P6SM BKN100 FM061600 22014G20KT P6SM OVC100 FM061900 20015G22KT P6SM BKN060 OVC080 FM062200 25013G21KT P6SM BKN050 BKN100
NOTAMs
Click for the latest NOTAMs
NOTAMs are issued by the DoD/FAA and will open in a separate window not controlled by AirNav.

 

 
 

Would you like to see your business listed on this page?

 If your business provides an interesting product or service to pilots, flight crews, aircraft, or users of the Johanson Estate Heliport, you should consider listing it here.  To start the listing process, click on the button below
 
Add a business
 

Other Pages about Johanson Estate Heliport

Update a link
 
Copyright © AirNav, LLC. All rights reserved. Privacy Policy  Contact